Time;durP1;ratioP1;P1;durP2;ratioP2;P2;SDS_P1;SDS_P2;PMS_P1;PMS_P2;Temp;Humidity;BMP_temperature;BMP_pressure;BME280_temperature;BME280_humidity;BME280_pressure;Samples;Min_cycle;Max_cycle;Signal;HPM_P1;HPM_P2
2022/07/01 00:00:28;;;;;;;12.85;6.20;;;;;;;15.73;100.00;100511.25;8342127;28;20386;-66
2022/07/01 00:04:29;;;;;;;14.18;5.07;;;;;;;15.68;100.00;100517.22;8362224;28;20508;-66
2022/07/01 00:08:29;;;;;;;10.32;5.97;;;;;;;15.70;100.00;100526.09;8362668;28;20041;-66
2022/07/01 00:12:30;;;;;;;9.93;5.35;;;;;;;15.73;100.00;100503.94;8355998;28;20040;-66
2022/07/01 00:16:30;;;;;;;11.15;5.43;;;;;;;15.66;100.00;100513.84;8408735;28;20614;-66
2022/07/01 00:20:32;;;;;;;9.75;5.88;;;;;;;15.64;100.00;100515.00;8367142;28;20526;-65
2022/07/01 00:24:32;;;;;;;13.73;6.43;;;;;;;15.64;100.00;100515.88;8368978;28;20740;-66
2022/07/01 00:28:32;;;;;;;13.45;6.07;;;;;;;15.69;100.00;100529.84;8371206;28;20044;-66
2022/07/01 00:32:33;;;;;;;8.97;6.70;;;;;;;15.81;100.00;100510.38;8364270;28;20047;-65
2022/07/01 00:36:33;;;;;;;14.85;7.18;;;;;;;15.68;100.00;100514.50;8361997;28;20267;-66
2022/07/01 00:40:34;;;;;;;15.02;8.48;;;;;;;15.70;100.00;100531.53;8363388;28;20025;-66
2022/07/01 00:44:35;;;;;;;12.05;7.32;;;;;;;15.76;100.00;100540.06;8375516;28;20037;-66
2022/07/01 00:48:36;;;;;;;13.15;8.57;;;;;;;15.73;100.00;100535.78;8375656;28;20037;-65
2022/07/01 00:52:38;;;;;;;13.13;8.40;;;;;;;15.73;100.00;100547.53;8375604;28;20048;-65
2022/07/01 00:56:39;;;;;;;17.85;8.32;;;;;;;15.65;100.00;100550.28;8394917;28;20047;-65
2022/07/01 01:00:39;;;;;;;14.77;8.82;;;;;;;15.64;100.00;100558.63;8384326;28;20481;-66
2022/07/01 01:04:40;;;;;;;17.05;7.40;;;;;;;15.62;100.00;100572.41;8369546;28;20767;-65
2022/07/01 01:08:41;;;;;;;13.60;7.40;;;;;;;15.61;100.00;100569.88;8396569;28;20044;-65
2022/07/01 01:12:42;;;;;;;12.98;7.00;;;;;;;15.62;100.00;100566.97;8381116;28;20060;-65
2022/07/01 01:16:43;;;;;;;7.75;6.05;;;;;;;15.50;100.00;100568.34;8380169;28;20149;-65
2022/07/01 01:20:43;;;;;;;11.43;6.65;;;;;;;15.54;100.00;100563.41;8396565;28;20496;-65
2022/07/01 01:24:45;;;;;;;12.65;5.70;;;;;;;15.47;100.00;100582.31;8384765;28;20493;-65
2022/07/01 01:28:47;;;;;;;12.32;4.78;;;;;;;15.39;100.00;100576.88;8363147;28;20525;-65
2022/07/01 01:32:49;;;;;;;7.43;4.90;;;;;;;15.35;100.00;100589.09;8359154;28;20051;-65
2022/07/01 01:36:50;;;;;;;8.30;4.57;;;;;;;15.38;100.00;100591.53;8374554;28;20601;-65
2022/07/01 01:40:50;;;;;;;6.78;4.63;;;;;;;15.37;100.00;100595.25;8374899;28;20538;-65
2022/07/01 01:44:51;;;;;;;8.68;4.30;;;;;;;15.30;100.00;100588.75;8367076;28;20048;-66
2022/07/01 01:48:52;;;;;;;7.45;3.67;;;;;;;15.24;100.00;100586.69;8365294;28;20047;-65
2022/07/01 01:52:52;;;;;;;8.75;3.47;;;;;;;15.15;100.00;100603.19;8362895;28;20127;-65
2022/07/01 01:56:52;;;;;;;10.30;3.95;;;;;;;15.11;100.00;100599.97;8371563;28;20048;-65
2022/07/01 02:00:53;;;;;;;5.32;3.28;;;;;;;15.21;100.00;100603.38;8367464;28;20456;-65
2022/07/01 02:04:53;;;;;;;7.88;3.13;;;;;;;15.20;100.00;100592.66;8356352;28;20489;-66
2022/07/01 02:08:54;;;;;;;4.78;2.60;;;;;;;15.18;100.00;100606.44;8364182;28;20481;-65
2022/07/01 02:12:54;;;;;;;4.60;2.97;;;;;;;15.12;100.00;100606.25;8373140;28;20048;-65
2022/07/01 02:16:54;;;;;;;3.47;2.67;;;;;;;15.31;100.00;100606.78;8365137;28;20287;-65
2022/07/01 02:20:55;;;;;;;3.93;2.63;;;;;;;15.28;100.00;100611.75;8356678;28;20291;-65
2022/07/01 02:24:55;;;;;;;3.35;2.60;;;;;;;15.24;100.00;100610.34;8369726;28;20295;-65
2022/07/01 02:28:56;;;;;;;3.30;2.10;;;;;;;15.22;100.00;100621.41;8364635;28;20548;-65
2022/07/01 02:32:56;;;;;;;5.97;2.55;;;;;;;15.32;100.00;100621.28;8369259;28;20295;-65
2022/07/01 02:36:57;;;;;;;4.60;2.25;;;;;;;15.25;100.00;100623.81;8359877;28;20036;-65
2022/07/01 02:40:57;;;;;;;4.30;2.40;;;;;;;15.32;100.00;100638.47;8365409;28;20045;-65
2022/07/01 02:44:57;;;;;;;10.55;2.20;;;;;;;15.27;100.00;100643.56;8385634;28;20155;-65
2022/07/01 02:48:58;;;;;;;11.60;3.17;;;;;;;15.17;100.00;100642.00;8360115;28;20661;-65
2022/07/01 02:52:58;;;;;;;11.32;2.85;;;;;;;15.08;100.00;100641.16;8393603;28;21958;-65
2022/07/01 02:56:58;;;;;;;7.10;2.13;;;;;;;15.11;100.00;100654.44;8360261;28;20033;-65
2022/07/01 03:00:59;;;;;;;4.73;2.17;;;;;;;15.06;100.00;100664.09;8361604;28;20060;-65
2022/07/01 03:05:00;;;;;;;4.53;2.00;;;;;;;14.93;100.00;100672.75;8363263;28;20735;-65
2022/07/01 03:09:00;;;;;;;8.30;2.60;;;;;;;14.76;100.00;100678.31;8366750;28;20372;-65
2022/07/01 03:13:01;;;;;;;5.47;2.75;;;;;;;14.75;100.00;100688.31;8368223;28;20569;-65
2022/07/01 03:17:02;;;;;;;6.53;2.72;;;;;;;14.63;100.00;100681.47;8362927;28;20065;-65
2022/07/01 03:21:03;;;;;;;5.10;2.03;;;;;;;14.58;100.00;100672.91;8373794;28;20049;-65
2022/07/01 03:25:04;;;;;;;11.30;2.70;;;;;;;14.48;100.00;100655.00;8364663;28;20098;-65
2022/07/01 03:29:04;;;;;;;9.30;2.20;;;;;;;14.47;100.00;100673.22;8358276;28;20485;-65
2022/07/01 03:33:05;;;;;;;5.45;2.70;;;;;;;14.47;100.00;100673.22;8370881;28;20462;-65
2022/07/01 03:37:07;;;;;;;6.47;2.40;;;;;;;14.44;100.00;100667.25;8363829;28;20091;-65
2022/07/01 03:41:07;;;;;;;14.32;2.95;;;;;;;14.33;100.00;100662.91;8365154;28;20037;-65
2022/07/01 03:45:08;;;;;;;11.97;2.73;;;;;;;14.31;100.00;100670.41;8374700;28;20064;-65
2022/07/01 03:49:08;;;;;;;13.07;2.47;;;;;;;14.25;100.00;100665.63;8375121;28;20771;-65
2022/07/01 03:54:40;;;;;;;6.90;2.63;;;;;;;14.31;100.00;100670.41;8376877;28;20044;-65
2022/07/01 03:57:29;;;;;;;8.32;2.20;;;;;;;14.34;100.00;100670.09;8370324;28;20040;-65
2022/07/01 04:01:30;;;;;;;9.32;2.35;;;;;;;14.39;100.00;100678.59;8366365;28;20123;-65
2022/07/01 04:05:34;;;;;;;10.40;3.03;;;;;;;14.33;100.00;100690.13;8368112;28;20515;-65
2022/07/01 04:09:34;;;;;;;10.65;2.53;;;;;;;14.45;100.00;100682.56;8359544;28;20048;-65
2022/07/01 04:13:37;;;;;;;7.25;1.75;;;;;;;14.53;100.00;100691.63;8359059;28;20119;-65
2022/07/01 04:17:37;;;;;;;10.68;2.88;;;;;;;14.54;100.00;100696.03;8371658;28;20037;-65
2022/07/01 04:22:39;;;;;;;10.18;2.75;;;;;;;14.60;100.00;100699.97;8377977;28;20070;-65
2022/07/01 04:25:58;;;;;;;11.20;2.72;;;;;;;14.67;100.00;100671.94;8370241;28;20056;-65
2022/07/01 04:29:59;;;;;;;12.30;3.40;;;;;;;14.60;100.00;100673.63;8360227;28;20045;-65
2022/07/01 04:33:59;;;;;;;9.80;2.85;;;;;;;14.67;100.00;100669.22;8354921;28;20068;-65
2022/07/01 04:38:01;;;;;;;5.25;2.42;;;;;;;14.66;100.00;100675.69;8356614;28;20044;-65
2022/07/01 04:42:01;;;;;;;6.72;2.63;;;;;;;14.65;100.00;100674.00;8360876;28;20033;-65
2022/07/01 04:46:01;;;;;;;14.15;2.90;;;;;;;14.81;100.00;100674.06;8360927;28;20623;-65
2022/07/01 04:50:02;;;;;;;9.30;2.78;;;;;;;14.93;100.00;100667.31;8367397;28;20049;-64
2022/07/01 04:54:04;;;;;;;10.48;2.72;;;;;;;14.97;100.00;100663.22;8362932;28;20256;-64
2022/07/01 04:58:05;;;;;;;5.70;2.38;;;;;;;15.05;100.00;100641.47;8365303;28;20064;-64
2022/07/01 05:02:05;;;;;;;12.77;2.70;;;;;;;15.26;100.00;100651.91;8350253;28;20059;-64
2022/07/01 05:06:06;;;;;;;15.13;3.08;;;;;;;15.51;100.00;100646.38;8366236;28;20044;-64
2022/07/01 05:10:06;;;;;;;9.70;2.47;;;;;;;15.54;100.00;100650.63;8361413;28;20033;-64
2022/07/01 05:14:07;;;;;;;6.28;2.50;;;;;;;15.62;100.00;100659.63;8363979;28;20040;-65
2022/07/01 05:22:28;;;;;;;5.57;1.98;;;;;;;15.81;100.00;100663.06;8381201;28;20064;-65
2022/07/01 05:26:29;;;;;;;9.33;2.33;;;;;;;15.76;100.00;100676.38;8382839;28;20485;-65
2022/07/01 05:30:29;;;;;;;3.85;1.90;;;;;;;16.86;100.00;100672.75;8382424;28;20301;-61
2022/07/01 05:34:29;;;;;;;9.60;2.30;;;;;;;16.21;100.00;100682.97;8381592;28;20055;-64
2022/07/01 05:38:30;;;;;;;4.73;2.33;;;;;;;15.83;100.00;100669.19;8380768;28;20397;-65
2022/07/01 05:42:30;;;;;;;6.32;2.03;;;;;;;15.79;100.00;100670.56;8382069;28;20298;-65
2022/07/01 05:46:31;;;;;;;6.53;2.63;;;;;;;15.76;100.00;100676.38;8379627;28;20040;-65
2022/07/01 05:50:31;;;;;;;6.38;1.92;;;;;;;16.90;100.00;100674.94;8380713;28;20287;-61
2022/07/01 05:54:32;;;;;;;3.97;1.98;;;;;;;16.48;100.00;100677.16;8370994;28;20160;-65
2022/07/01 05:58:32;;;;;;;5.47;2.50;;;;;;;16.30;100.00;100689.25;8389301;28;20037;-65
2022/07/01 06:02:32;;;;;;;3.50;2.00;;;;;;;16.23;100.00;100701.91;8392163;28;20747;-65
2022/07/01 06:06:33;;;;;;;6.43;2.25;;;;;;;16.26;100.00;100707.00;8378951;28;20135;-65
2022/07/01 06:10:35;;;;;;;9.38;2.28;;;;;;;16.38;100.00;100697.44;8381346;28;20128;-65
2022/07/01 06:14:37;;;;;;;7.70;2.55;;;;;;;16.71;100.00;100704.56;8378222;28;20377;-65
2022/07/01 06:18:37;;;;;;;7.18;2.15;;;;;;;16.99;100.00;100728.50;8372356;28;20127;-65
2022/07/01 06:22:37;;;;;;;7.32;2.28;;;;;;;17.07;100.00;100716.72;8329712;28;20501;-65
2022/07/01 06:26:38;;;;;;;2.83;1.75;;;;;;;17.13;100.00;100708.66;8390409;28;20044;-65
2022/07/01 06:30:49;;;;;;;5.40;2.10;;;;;;;17.17;99.56;100714.63;8374747;28;20099;-65
2022/07/01 06:34:49;;;;;;;6.07;1.75;;;;;;;17.20;98.39;100725.22;8372065;28;20044;-65
2022/07/01 06:38:49;;;;;;;4.88;1.58;;;;;;;17.26;98.29;100740.91;8368792;28;20524;-65
2022/07/01 06:42:50;;;;;;;2.63;1.60;;;;;;;17.18;98.44;100738.19;8376422;28;20103;-65
2022/07/01 06:46:50;;;;;;;3.37;1.30;;;;;;;17.25;98.41;100728.25;8380327;28;20515;-65
2022/07/01 06:50:50;;;;;;;2.85;1.40;;;;;;;17.23;97.79;100749.44;8380354;28;20830;-65
2022/07/01 06:54:51;;;;;;;3.60;1.75;;;;;;;17.26;97.14;100760.03;8377938;28;20036;-65
2022/07/01 06:58:51;;;;;;;5.33;1.67;;;;;;;17.23;96.73;100752.19;8374401;28;20044;-65
2022/07/01 07:02:52;;;;;;;3.88;1.50;;;;;;;17.15;96.96;100746.75;8379488;28;20301;-65
2022/07/01 07:06:52;;;;;;;5.97;1.73;;;;;;;17.06;100.00;100754.13;8384503;28;20072;-65
2022/07/01 07:10:52;;;;;;;5.13;2.30;;;;;;;16.96;100.00;100749.88;8387620;28;20143;-65
2022/07/01 07:14:53;;;;;;;6.97;2.25;;;;;;;16.97;98.42;100765.25;8386675;28;20053;-65
2022/07/01 07:18:53;;;;;;;4.85;2.17;;;;;;;16.97;99.92;100757.03;8385635;28;20047;-65
2022/07/01 07:22:53;;;;;;;12.87;2.70;;;;;;;16.93;100.00;100756.53;8380983;28;20040;-65
2022/07/01 07:26:54;;;;;;;4.97;2.17;;;;;;;17.02;99.29;100766.41;8381305;28;20070;-65
2022/07/01 07:30:54;;;;;;;6.35;2.65;;;;;;;17.07;99.93;100783.13;8387865;28;20657;-65
2022/07/01 07:34:55;;;;;;;3.10;2.30;;;;;;;17.20;98.75;100779.84;8384060;28;20401;-65
2022/07/01 07:38:55;;;;;;;3.03;2.30;;;;;;;17.36;99.09;100779.78;8374625;28;20467;-65
2022/07/01 07:42:55;;;;;;;3.78;2.00;;;;;;;17.54;94.54;100786.72;8381826;28;20302;-65
2022/07/01 07:46:57;;;;;;;7.40;2.25;;;;;;;17.91;93.38;100783.25;8383357;28;20052;-65
2022/07/01 07:50:57;;;;;;;8.00;2.22;;;;;;;18.16;91.34;100790.25;8381782;28;20049;-65
2022/07/01 07:54:58;;;;;;;4.50;2.10;;;;;;;18.21;89.72;100792.44;8383366;28;20179;-65
2022/07/01 07:58:58;;;;;;;6.07;2.30;;;;;;;17.99;89.80;100794.13;8382687;28;20038;-65
2022/07/01 08:02:58;;;;;;;3.43;2.20;;;;;;;17.88;93.53;100801.91;8384171;28;20106;-65
2022/07/01 08:06:59;;;;;;;2.67;2.00;;;;;;;17.67;93.89;100794.34;8386906;28;20287;-65
2022/07/01 08:11:00;;;;;;;4.22;2.50;;;;;;;17.89;93.54;100798.13;8384400;28;20417;-66
2022/07/01 08:15:01;;;;;;;7.50;2.67;;;;;;;18.48;89.55;100789.19;8384719;28;20044;-65
2022/07/01 08:19:02;;;;;;;4.18;2.22;;;;;;;19.07;88.34;100790.97;8375032;28;20060;-64
2022/07/01 08:23:03;;;;;;;6.22;2.72;;;;;;;19.89;83.31;100797.97;8359124;28;20044;-65
2022/07/01 08:27:03;;;;;;;6.78;2.30;;;;;;;19.71;84.81;100800.28;8345760;28;20105;-65
2022/07/01 08:31:04;;;;;;;2.15;1.85;;;;;;;20.64;80.30;100801.94;8375692;28;20055;-65
2022/07/01 08:35:04;;;;;;;4.53;2.13;;;;;;;20.85;76.58;100807.38;8393387;28;20457;-65
2022/07/01 08:39:05;;;;;;;11.18;1.70;;;;;;;20.36;79.83;100817.53;8371996;28;20045;-65
2022/07/01 08:43:06;;;;;;;7.43;2.67;;;;;;;19.64;81.18;100818.56;8373599;28;20503;-65
2022/07/01 08:47:11;;;;;;;5.68;2.42;;;;;;;19.32;81.31;100817.09;8377604;28;20981;-65
2022/07/01 08:51:12;;;;;;;2.42;2.13;;;;;;;19.19;81.00;100822.34;8376867;28;20040;-65
2022/07/01 08:55:12;;;;;;;6.22;2.80;;;;;;;19.33;82.30;100825.13;8372887;28;20075;-66
2022/07/01 08:59:22;;;;;;;8.00;2.47;;;;;;;19.26;80.82;100835.16;8359806;28;20524;-65
2022/07/01 09:03:23;;;;;;;5.57;2.60;;;;;;;19.70;79.04;100826.03;8378310;28;20095;-65
2022/07/01 09:07:33;;;;;;;8.68;2.40;;;;;;;20.08;78.62;100830.28;8374975;28;20036;-65
2022/07/01 09:11:33;;;;;;;8.88;2.42;;;;;;;20.17;76.79;100823.66;8374239;28;20251;-65
2022/07/01 09:15:35;;;;;;;4.27;2.30;;;;;;;20.81;79.92;100839.09;8353831;28;20372;-65
2022/07/01 09:19:37;;;;;;;4.95;1.95;;;;;;;20.38;74.06;100826.44;8370364;28;20282;-65
2022/07/01 09:23:38;;;;;;;10.07;2.25;;;;;;;21.24;72.04;100832.47;8352744;28;20047;-62
2022/07/01 09:27:39;;;;;;;2.40;1.23;;;;;;;21.81;71.21;100826.66;8352863;28;20048;-62
2022/07/01 09:31:47;;;;;;;3.55;1.55;;;;;;;20.33;71.95;100845.38;8361739;28;20048;-66
2022/07/01 09:35:49;;;;;;;4.13;1.48;;;;;;;21.80;71.16;100849.75;8352699;28;20048;-65
2022/07/01 09:39:55;;;;;;;4.82;1.25;;;;;;;20.71;69.82;100844.91;8363164;28;20572;-66
2022/07/01 09:44:03;;;;;;;4.93;1.73;;;;;;;20.44;73.49;100836.63;8363685;28;20044;-66
2022/07/01 09:48:04;;;;;;;4.63;1.75;;;;;;;20.55;73.03;100841.56;8340561;28;20052;-66
2022/07/01 09:52:05;;;;;;;4.55;1.55;;;;;;;20.33;72.04;100831.66;8342567;28;20049;-66
2022/07/01 09:56:05;;;;;;;6.65;1.30;;;;;;;20.62;71.72;100831.53;8347662;28;20041;-66
2022/07/01 10:00:07;;;;;;;5.32;1.40;;;;;;;21.49;71.11;100833.66;8348213;28;20270;-66
2022/07/01 10:04:09;;;;;;;3.30;1.13;;;;;;;21.52;71.48;100837.91;8344634;28;20504;-66
2022/07/01 10:12:51;;;;;;;4.85;1.23;;;;;;;20.89;70.57;100836.19;8315856;27;20439;-65
2022/07/01 10:16:52;;;;;;;2.35;1.23;;;;;;;20.78;70.16;100850.47;8299893;28;20037;-65
2022/07/01 10:20:54;;;;;;;1.42;1.00;;;;;;;23.55;64.34;100834.44;8298941;28;20436;-65
2022/07/01 10:25:16;;;;;;;2.75;0.95;;;;;;;25.66;57.27;100837.25;8298687;28;20476;-65
2022/07/01 10:29:34;;;;;;;2.63;1.15;;;;;;;25.22;56.16;100841.06;8283441;28;20040;-65
2022/07/01 10:33:57;;;;;;;2.38;1.40;;;;;;;23.80;59.83;100839.03;8297829;28;20079;-65
2022/07/01 10:37:59;;;;;;;3.30;1.83;;;;;;;23.78;59.67;100837.56;8298194;28;20092;-65
2022/07/01 10:42:00;;;;;;;3.38;1.50;;;;;;;23.83;57.12;100827.56;8297584;28;20041;-65
2022/07/01 10:46:01;;;;;;;2.33;1.00;;;;;;;24.76;57.95;100824.91;8298442;28;20224;-65
2022/07/01 10:50:08;;;;;;;2.63;0.70;;;;;;;26.63;51.03;100835.94;8292959;28;20168;-64
2022/07/01 10:54:08;;;;;;;3.35;1.00;;;;;;;25.04;54.93;100832.75;8287275;28;20052;-65
2022/07/01 10:58:09;;;;;;;4.43;1.40;;;;;;;24.46;55.51;100837.63;8293002;28;20065;-64
2022/07/01 11:02:15;;;;;;;6.68;1.20;;;;;;;23.77;59.09;100838.63;8295233;28;20120;-65
2022/07/01 11:06:17;;;;;;;9.50;1.60;;;;;;;22.91;62.33;100837.06;8294413;28;20045;-64
2022/07/01 11:10:19;;;;;;;2.20;1.45;;;;;;;22.12;65.19;100836.09;8293355;28;20061;-64
2022/07/01 11:14:20;;;;;;;4.55;1.67;;;;;;;21.96;67.03;100838.38;8293046;28;20041;-64
2022/07/01 11:18:21;;;;;;;9.45;1.55;;;;;;;22.90;67.10;100827.94;8295278;28;20076;-65
2022/07/01 11:22:23;;;;;;;3.38;1.00;;;;;;;24.96;59.06;100830.28;8278401;28;20053;-65
2022/07/01 11:26:25;;;;;;;4.88;0.93;;;;;;;27.68;51.64;100832.16;8268671;28;20045;-65
2022/07/01 11:30:25;;;;;;;2.88;0.90;;;;;;;28.59;47.49;100843.25;8272053;28;20042;-64
2022/07/01 11:34:28;;;;;;;1.90;0.70;;;;;;;27.03;49.43;100840.84;8274404;28;20123;-64
2022/07/01 11:39:34;;;;;;;3.05;0.55;;;;;;;24.37;54.08;100840.91;8297811;28;20124;-64
2022/07/01 11:42:49;;;;;;;2.08;0.73;;;;;;;25.38;53.86;100848.00;8266291;28;20099;-64
2022/07/01 11:46:50;;;;;;;3.77;0.80;;;;;;;24.56;53.80;100835.25;8275540;28;20489;-64
2022/07/01 11:50:50;;;;;;;0.43;0.40;;;;;;;23.54;54.81;100824.47;8279503;28;20404;-64
2022/07/01 11:54:53;;;;;;;2.90;0.60;;;;;;;24.38;52.98;100820.47;8263464;28;20132;-64
2022/07/01 11:58:55;;;;;;;2.47;0.50;;;;;;;27.31;50.56;100821.56;8268763;28;20038;-64
2022/07/01 12:02:55;;;;;;;3.10;0.85;;;;;;;28.80;49.70;100827.75;8274676;28;20088;-64
2022/07/01 12:06:55;;;;;;;4.83;0.80;;;;;;;26.10;51.28;100840.53;8264163;28;20065;-64
2022/07/01 12:10:59;;;;;;;2.90;1.00;;;;;;;24.04;55.51;100830.03;8269313;28;20856;-64
2022/07/01 12:14:59;;;;;;;5.50;0.60;;;;;;;23.55;58.86;100826.16;8264688;28;20427;-64
2022/07/01 12:19:02;;;;;;;2.72;0.82;;;;;;;24.24;56.02;100827.19;8271019;28;20460;-64
2022/07/01 12:23:17;;;;;;;5.10;0.70;;;;;;;24.25;61.08;100826.09;8271022;28;20038;-65
2022/07/01 12:27:20;;;;;;;4.88;0.80;;;;;;;23.37;56.95;100837.03;8264224;28;20634;-64
2022/07/01 12:31:21;;;;;;;4.32;1.13;;;;;;;22.93;59.68;100829.41;8267418;28;20514;-64
2022/07/01 12:35:39;;;;;;;1.70;0.60;;;;;;;23.81;56.96;100826.91;8268309;28;20441;-64
2022/07/01 12:43:55;;;;;;;5.45;0.70;;;;;;;23.71;60.19;100823.78;8334847;27;20410;-64
2022/07/01 12:47:57;;;;;;;12.48;0.93;;;;;;;23.99;58.57;100826.22;8332639;28;20405;-64
2022/07/01 12:51:57;;;;;;;2.28;0.52;;;;;;;23.76;56.24;100817.59;8334545;28;20044;-63
2022/07/01 12:55:58;;;;;;;7.27;1.17;;;;;;;23.72;57.85;100819.13;8336940;28;20041;-62
2022/07/01 12:59:59;;;;;;;0.63;0.40;;;;;;;23.80;57.08;100821.59;8336703;28;20687;-63
2022/07/01 13:03:59;;;;;;;1.67;0.50;;;;;;;23.46;53.93;100819.19;8325193;28;20069;-63
2022/07/01 13:08:00;;;;;;;1.00;0.40;;;;;;;23.15;54.70;100806.91;8321179;28;20041;-62
2022/07/01 13:12:00;;;;;;;6.13;0.70;;;;;;;22.71;58.05;100808.63;8321309;28;20426;-63
2022/07/01 13:16:01;;;;;;;1.98;0.55;;;;;;;22.90;60.64;100825.19;8326463;28;20045;-63
2022/07/01 13:20:01;;;;;;;3.85;0.82;;;;;;;22.97;56.05;100814.97;8327823;28;20050;-63
2022/07/01 13:24:02;;;;;;;3.03;0.57;;;;;;;23.35;56.19;100822.59;8322387;28;20361;-63
2022/07/01 13:28:03;;;;;;;4.38;0.68;;;;;;;23.66;57.85;100825.50;8322702;28;20703;-63
2022/07/01 13:32:04;;;;;;;2.08;0.70;;;;;;;23.21;55.91;100832.81;8319870;28;20138;-63
2022/07/01 13:36:06;;;;;;;1.52;0.47;;;;;;;23.35;56.81;100828.97;8321310;28;20049;-63
2022/07/01 13:40:07;;;;;;;1.65;0.60;;;;;;;23.32;58.91;100820.28;8326175;28;20048;-63
2022/07/01 13:44:08;;;;;;;4.18;0.80;;;;;;;23.65;57.83;100829.31;8333473;28;20899;-63
2022/07/01 13:48:09;;;;;;;5.25;0.98;;;;;;;23.30;57.44;100836.22;8337356;28;20918;-63
2022/07/01 13:52:10;;;;;;;2.58;0.50;;;;;;;23.61;53.65;100836.34;8329799;28;20049;-63
2022/07/01 13:56:10;;;;;;;11.07;3.97;;;;;;;23.54;53.35;100839.09;8303462;28;20038;-63
2022/07/01 14:00:12;;;;;;;3.33;0.70;;;;;;;23.63;56.12;100842.50;8303977;28;20099;-63
2022/07/01 14:04:12;;;;;;;0.93;0.32;;;;;;;23.51;55.39;100841.47;8304456;28;20250;-63
2022/07/01 14:08:13;;;;;;;2.65;0.57;;;;;;;24.52;57.80;100849.75;8310631;28;20044;-63
2022/07/01 14:12:15;;;;;;;1.15;0.40;;;;;;;23.78;55.11;100854.97;8313391;28;20041;-64
2022/07/01 14:16:15;;;;;;;2.38;0.40;;;;;;;23.45;56.20;100862.50;8309388;28;20038;-63
2022/07/01 14:20:15;;;;;;;2.70;0.30;;;;;;;23.74;54.67;100867.53;8310123;28;20041;-63
2022/07/01 14:24:16;;;;;;;1.52;0.40;;;;;;;23.94;58.18;100867.47;8307181;28;20506;-63
2022/07/01 14:28:16;;;;;;;3.90;0.80;;;;;;;23.82;55.70;100869.19;8307114;28;20049;-63
2022/07/01 14:32:16;;;;;;;2.08;0.63;;;;;;;23.64;57.05;100860.75;8298444;28;20288;-63
2022/07/01 14:36:18;;;;;;;2.13;0.52;;;;;;;23.82;55.36;100869.19;8291751;28;20388;-63
2022/07/01 14:40:18;;;;;;;2.72;0.32;;;;;;;23.36;54.11;100871.22;8295657;28;20546;-64
2022/07/01 14:44:19;;;;;;;3.28;0.40;;;;;;;23.55;54.59;100868.44;8296739;28;20041;-65
2022/07/01 14:48:19;;;;;;;1.77;0.40;;;;;;;23.51;53.19;100866.31;8291639;28;20141;-63
2022/07/01 14:52:22;;;;;;;1.58;0.43;;;;;;;23.70;55.52;100877.31;8300945;28;20296;-63
2022/07/01 14:56:23;;;;;;;2.80;1.15;;;;;;;23.53;51.98;100880.75;8298900;28;20045;-63
2022/07/01 15:00:25;;;;;;;1.52;0.20;;;;;;;23.34;53.21;100879.72;8298040;28;20536;-62
2022/07/01 15:04:26;;;;;;;1.65;0.43;;;;;;;23.36;53.63;100876.75;8296979;28;20127;-63
2022/07/01 15:08:26;;;;;;;2.83;0.30;;;;;;;23.43;53.23;100874.81;8289379;28;20396;-63
2022/07/01 15:12:28;;;;;;;2.37;0.40;;;;;;;23.14;53.60;100879.72;8288238;28;20033;-63
2022/07/01 15:16:28;;;;;;;2.40;0.70;;;;;;;23.18;54.51;100878.22;8292629;28;20812;-63
2022/07/01 15:20:29;;;;;;;1.92;0.60;;;;;;;23.01;56.48;100876.09;8293146;28;20069;-64
2022/07/01 15:24:30;;;;;;;1.88;0.50;;;;;;;23.08;55.01;100879.69;8296104;28;20042;-63
2022/07/01 15:28:31;;;;;;;1.92;0.50;;;;;;;23.12;55.33;100875.47;8301827;28;20118;-63
2022/07/01 15:32:32;;;;;;;6.30;0.75;;;;;;;23.03;56.36;100874.81;8295650;28;20053;-64
2022/07/01 15:36:32;;;;;;;2.35;0.40;;;;;;;22.79;55.90;100874.63;8302205;28;20056;-63
2022/07/01 15:40:33;;;;;;;5.80;0.90;;;;;;;22.94;55.32;100867.81;8297801;28;20059;-64
2022/07/01 15:44:34;;;;;;;1.02;0.30;;;;;;;23.16;57.42;100869.31;8293269;28;20122;-63
2022/07/01 15:48:35;;;;;;;2.17;0.32;;;;;;;23.11;53.89;100874.63;8292106;28;20053;-63
2022/07/01 15:52:36;;;;;;;1.30;0.40;;;;;;;22.77;54.57;100874.81;8301792;28;20060;-63
2022/07/01 15:56:36;;;;;;;4.40;0.60;;;;;;;22.72;55.91;100888.38;8306938;28;20168;-64
2022/07/01 16:00:40;;;;;;;1.05;0.50;;;;;;;22.51;56.63;100884.97;8303619;28;20152;-63
2022/07/01 16:04:47;;;;;;;0.83;0.30;;;;;;;22.74;55.93;100883.53;8291632;28;20381;-63
2022/07/01 16:08:51;;;;;;;2.58;0.40;;;;;;;23.41;54.67;100885.22;8278811;28;20041;-63
2022/07/01 16:12:53;;;;;;;2.38;0.60;;;;;;;23.13;55.00;100889.06;8287660;28;20128;-63
2022/07/01 16:16:56;;;;;;;3.78;0.50;;;;;;;22.70;55.45;100895.19;8298028;28;20053;-63
2022/07/01 16:20:59;;;;;;;1.00;0.50;;;;;;;22.43;56.12;100891.50;8324855;28;20470;-63
2022/07/01 16:24:59;;;;;;;2.85;0.60;;;;;;;22.37;59.74;100895.06;8307160;28;20084;-64
2022/07/01 16:29:00;;;;;;;2.53;0.55;;;;;;;22.55;57.75;100892.59;8306308;28;20306;-64
2022/07/01 16:33:02;;;;;;;1.85;0.40;;;;;;;22.84;56.47;100894.97;8309555;28;20132;-63
2022/07/01 16:37:09;;;;;;;2.10;0.47;;;;;;;22.95;55.09;100894.34;8295192;28;20119;-63
2022/07/01 16:41:16;;;;;;;2.15;0.50;;;;;;;22.55;55.05;100895.38;8294657;28;20152;-63
2022/07/01 16:45:17;;;;;;;0.60;0.40;;;;;;;22.31;55.97;100901.41;8304079;28;20091;-63
2022/07/01 16:49:25;;;;;;;1.33;0.40;;;;;;;22.01;58.55;100905.53;8305604;28;20041;-63
2022/07/01 16:53:38;;;;;;;2.78;0.65;;;;;;;22.13;58.31;100908.53;8294043;28;20045;-63
2022/07/01 16:57:42;;;;;;;1.98;0.30;;;;;;;22.22;58.72;100904.53;8307932;28;20045;-63
2022/07/01 17:01:43;;;;;;;1.02;0.50;;;;;;;22.31;56.95;100897.78;8308085;28;20120;-63
2022/07/01 17:05:49;;;;;;;3.13;0.40;;;;;;;22.32;57.36;100914.13;8307800;28;20041;-63
2022/07/01 17:09:51;;;;;;;0.98;0.38;;;;;;;22.11;58.45;100910.66;8310562;28;20072;-63
2022/07/01 17:13:52;;;;;;;0.88;0.45;;;;;;;21.99;57.68;100907.63;8312285;28;20041;-63
2022/07/01 17:17:53;;;;;;;0.50;0.30;;;;;;;22.08;58.95;100911.91;8309497;28;20041;-63
2022/07/01 17:22:00;;;;;;;1.35;0.45;;;;;;;22.18;59.35;100912.41;8295930;28;20095;-63
2022/07/01 17:26:08;;;;;;;3.72;0.50;;;;;;;22.22;58.42;100930.19;8304972;28;20417;-63
2022/07/01 17:30:11;;;;;;;1.00;0.38;;;;;;;22.33;57.25;100937.03;8302583;28;20049;-63
2022/07/01 17:34:14;;;;;;;1.85;0.60;;;;;;;22.07;59.24;100940.50;8296511;28;20449;-63
2022/07/01 17:38:18;;;;;;;4.78;0.40;;;;;;;21.78;60.26;100932.53;8295978;28;20046;-63
2022/07/01 17:42:19;;;;;;;1.98;0.70;;;;;;;21.71;61.05;100937.09;8295682;28;20393;-64
2022/07/01 17:46:22;;;;;;;3.17;0.70;;;;;;;21.77;62.26;100939.06;8296179;28;20500;-63
2022/07/01 17:50:25;;;;;;;3.35;0.57;;;;;;;21.96;61.97;100941.06;8296409;28;20042;-63
2022/07/01 17:54:25;;;;;;;2.80;0.45;;;;;;;22.09;60.09;100948.56;8298354;28;20041;-63
2022/07/01 17:58:29;;;;;;;3.30;0.60;;;;;;;22.04;59.47;100942.81;8292500;28;20041;-63
2022/07/01 18:02:30;;;;;;;4.53;0.40;;;;;;;21.73;60.01;100946.00;8299485;28;20598;-63
2022/07/01 18:06:31;;;;;;;6.05;0.73;;;;;;;21.47;61.10;100951.31;8306102;28;20041;-63
2022/07/01 18:10:57;;;;;;;1.63;0.63;;;;;;;21.16;62.49;100948.97;8301619;28;20033;-63
2022/07/01 18:15:03;;;;;;;2.00;0.40;;;;;;;21.04;62.97;100958.78;8300366;28;20041;-63
2022/07/01 18:19:30;;;;;;;1.02;0.40;;;;;;;21.03;62.90;100953.50;8305039;28;20544;-63
2022/07/01 18:23:40;;;;;;;2.78;0.60;;;;;;;20.96;63.21;100963.59;8297448;28;20041;-63
2022/07/01 18:27:44;;;;;;;1.90;0.40;;;;;;;20.85;64.54;100964.06;8290884;28;20095;-63
2022/07/01 18:31:45;;;;;;;1.77;0.47;;;;;;;20.76;64.29;100968.00;8300873;28;20140;-63
2022/07/01 18:35:49;;;;;;;1.33;0.40;;;;;;;20.73;64.38;100962.88;8303315;28;20444;-64
2022/07/01 18:39:50;;;;;;;3.63;0.95;;;;;;;20.67;65.02;100969.16;8298347;28;20049;-63
2022/07/01 18:43:50;;;;;;;4.72;0.85;;;;;;;20.64;64.54;100970.41;8300145;28;20406;-63
2022/07/01 18:47:54;;;;;;;2.22;0.55;;;;;;;20.61;65.07;100968.03;8312595;28;20042;-63
2022/07/01 18:51:54;;;;;;;2.10;0.60;;;;;;;20.59;65.05;100985.78;8302812;28;20041;-63